createdAt,value
2022-12-01T00:04:11.116Z,0.09
2022-12-01T00:09:35.689Z,0.08
2022-12-01T00:14:42.552Z,0.09
2022-12-01T00:19:49.787Z,0.09
2022-12-01T00:24:57.247Z,0.09
2022-12-01T00:30:05.033Z,0.10
2022-12-01T00:35:12.383Z,0.10
2022-12-01T00:40:19.116Z,0.10
2022-12-01T00:45:25.931Z,0.09
2022-12-01T00:50:32.862Z,0.11
2022-12-01T00:55:40.307Z,0.10
2022-12-01T01:00:47.157Z,0.09
2022-12-01T01:05:53.977Z,0.07
2022-12-01T01:11:02.198Z,0.05
2022-12-01T01:16:14.611Z,0.04
2022-12-01T01:21:22.137Z,0.07
2022-12-01T01:26:31.130Z,0.09
2022-12-01T01:31:38.413Z,0.10
2022-12-01T01:36:46.161Z,0.10
2022-12-01T01:41:53.047Z,0.11
2022-12-01T01:46:59.996Z,0.10
2022-12-01T01:52:07.340Z,0.09
2022-12-01T01:57:16.411Z,0.11
2022-12-01T02:02:23.320Z,0.11
2022-12-01T02:07:30.354Z,0.11
2022-12-01T02:12:57.162Z,0.12
2022-12-01T02:18:14.705Z,0.12
2022-12-01T02:23:49.670Z,0.15
2022-12-01T02:29:18.417Z,0.12
2022-12-01T02:34:31.114Z,0.14
2022-12-01T02:39:45.171Z,0.15
2022-12-01T02:44:52.377Z,0.13
2022-12-01T02:50:02.882Z,0.14
2022-12-01T02:55:10.737Z,0.13
2022-12-01T03:00:19.906Z,0.14
2022-12-01T03:05:32.379Z,0.14
2022-12-01T03:10:49.303Z,0.15
2022-12-01T03:16:02.885Z,0.15
2022-12-01T03:21:15.896Z,0.16
2022-12-01T03:26:25.434Z,0.15
2022-12-01T03:31:40.780Z,0.15
2022-12-01T03:36:52.425Z,0.15
2022-12-01T03:42:03.474Z,0.16
2022-12-01T03:47:14.256Z,0.16
2022-12-01T03:52:35.139Z,0.15
2022-12-01T03:57:47.454Z,0.17
2022-12-01T04:02:59.574Z,0.18
2022-12-01T04:08:05.062Z,0.19
2022-12-01T04:13:22.238Z,0.21
2022-12-01T04:18:29.062Z,0.22
2022-12-01T04:23:53.525Z,0.22
2022-12-01T04:29:01.348Z,0.24
2022-12-01T04:34:09.400Z,0.26
2022-12-01T04:39:16.597Z,0.26
2022-12-01T04:44:23.358Z,0.26
2022-12-01T04:49:30.271Z,0.28
2022-12-01T04:54:37.212Z,0.30
2022-12-01T04:59:43.991Z,0.30
2022-12-01T05:04:51.068Z,0.31
2022-12-01T05:09:58.102Z,0.31
2022-12-01T05:15:05.728Z,0.31
2022-12-01T05:20:39.743Z,0.32
2022-12-01T05:25:46.759Z,0.36
2022-12-01T05:30:57.745Z,0.39
2022-12-01T05:36:05.704Z,0.41
2022-12-01T05:41:13.030Z,0.42
2022-12-01T05:46:20.195Z,0.43
2022-12-01T05:51:27.038Z,0.46
2022-12-01T05:56:35.333Z,0.49
2022-12-01T06:01:42.254Z,0.51
2022-12-01T06:06:49.170Z,0.52
2022-12-01T06:11:56.002Z,0.53
2022-12-01T06:17:03.079Z,0.53
2022-12-01T06:22:10.136Z,0.54
2022-12-01T06:27:17.207Z,0.55
2022-12-01T06:32:24.075Z,0.59
2022-12-01T06:37:32.929Z,0.61
2022-12-01T06:42:39.980Z,0.62
2022-12-01T06:47:50.844Z,0.64
2022-12-01T06:52:59.360Z,0.66
2022-12-01T06:58:06.850Z,0.69
2022-12-01T07:03:13.855Z,0.71
2022-12-01T07:08:22.542Z,0.75
2022-12-01T07:13:33.374Z,0.77
2022-12-01T07:18:40.749Z,0.80
2022-12-01T07:23:47.530Z,0.83
2022-12-01T07:28:55.660Z,0.86
2022-12-01T07:34:02.563Z,0.91
2022-12-01T07:39:10.534Z,0.95
2022-12-01T07:44:17.524Z,0.98
2022-12-01T07:49:24.381Z,1.04
2022-12-01T07:54:31.160Z,1.10
2022-12-01T07:59:37.926Z,1.15
2022-12-01T08:04:45.433Z,1.23
2022-12-01T08:09:52.221Z,1.32
2022-12-01T08:14:58.962Z,1.40
2022-12-01T08:20:06.693Z,1.47
2022-12-01T08:25:13.712Z,1.55
2022-12-01T08:30:21.016Z,1.61
2022-12-01T08:35:28.334Z,1.70
2022-12-01T08:40:35.592Z,1.78
2022-12-01T08:45:42.502Z,1.85
2022-12-01T08:50:49.409Z,1.91
2022-12-01T08:55:56.310Z,1.93
2022-12-01T09:01:08.850Z,1.97
2022-12-01T09:06:20.232Z,2.02
2022-12-01T09:11:27.452Z,2.06
2022-12-01T09:16:34.723Z,2.12
2022-12-01T09:21:42.773Z,2.17
2022-12-01T09:26:49.941Z,2.23
2022-12-01T09:32:00.401Z,2.28
2022-12-01T09:37:07.748Z,2.30
2022-12-01T09:42:18.637Z,2.34
2022-12-01T09:47:30.875Z,2.36
2022-12-01T09:52:45.120Z,2.40
2022-12-01T09:58:04.741Z,2.42
2022-12-01T10:03:26.124Z,2.44
2022-12-01T10:08:38.279Z,2.43
2022-12-01T10:13:45.283Z,2.46
2022-12-01T10:19:01.186Z,2.49
2022-12-01T10:24:26.224Z,2.60
2022-12-01T10:29:45.063Z,2.63
2022-12-01T10:34:54.502Z,2.65
2022-12-01T10:40:01.477Z,2.66
2022-12-01T10:45:15.299Z,2.65
2022-12-01T10:50:29.026Z,2.66
2022-12-01T10:55:43.467Z,2.68
2022-12-01T11:01:01.241Z,2.72
2022-12-01T11:06:10.071Z,2.74
2022-12-01T11:11:29.165Z,2.75
2022-12-01T11:16:43.397Z,2.77
2022-12-01T11:21:52.632Z,2.78
2022-12-01T11:27:01.237Z,2.81
2022-12-01T11:32:20.678Z,2.83
2022-12-01T11:37:33.822Z,2.99
2022-12-01T11:42:42.071Z,3.00
2022-12-01T11:48:04.533Z,3.00
2022-12-01T11:53:29.147Z,3.00
2022-12-01T11:58:36.359Z,3.01
2022-12-01T12:03:53.368Z,3.01
2022-12-01T12:09:15.831Z,3.01
2022-12-01T12:14:48.711Z,2.99
2022-12-01T12:20:09.669Z,2.95
2022-12-01T12:25:28.915Z,2.89
2022-12-01T12:30:44.205Z,2.88
2022-12-01T12:36:03.547Z,2.90
2022-12-01T12:41:22.755Z,2.89
2022-12-01T12:46:37.431Z,2.81
2022-12-01T12:51:50.634Z,2.79
2022-12-01T12:57:07.704Z,2.81
2022-12-01T13:02:19.458Z,2.80
2022-12-01T13:07:35.699Z,2.79
2022-12-01T13:12:50.594Z,2.76
2022-12-01T13:18:03.413Z,2.75
2022-12-01T13:23:16.235Z,2.74
2022-12-01T13:28:26.285Z,2.73
2022-12-01T13:33:34.759Z,2.71
2022-12-01T13:38:43.671Z,2.70
2022-12-01T13:43:58.007Z,2.64
2022-12-01T13:49:31.819Z,2.60
2022-12-01T13:54:40.687Z,2.57
2022-12-01T14:00:25.195Z,2.55
2022-12-01T14:05:57.091Z,2.51
2022-12-01T14:11:07.605Z,2.49
2022-12-01T14:16:14.813Z,2.46
2022-12-01T14:21:44.254Z,2.43
2022-12-01T14:26:54.897Z,2.40
2022-12-01T14:32:22.974Z,2.42
2022-12-01T14:37:38.120Z,2.42
2022-12-01T14:43:06.866Z,2.41
2022-12-01T14:48:19.639Z,2.38
2022-12-01T14:53:31.798Z,2.36
2022-12-01T14:58:38.865Z,2.35
2022-12-01T15:03:49.497Z,2.34
2022-12-01T15:09:32.782Z,2.32
2022-12-01T15:14:48.069Z,2.31
2022-12-01T15:19:57.230Z,2.31
2022-12-01T15:25:15.155Z,2.31
2022-12-01T15:30:24.942Z,2.32
2022-12-01T15:35:35.742Z,2.32
2022-12-01T15:41:27.819Z,2.31
2022-12-01T15:46:30.149Z,2.31
2022-12-01T15:51:39.157Z,2.31
2022-12-01T15:56:52.547Z,2.32
2022-12-01T16:02:02.050Z,2.30
2022-12-01T16:07:12.308Z,2.27
2022-12-01T16:12:27.515Z,2.29
2022-12-01T16:17:45.474Z,2.27
2022-12-01T16:22:58.908Z,2.26
2022-12-01T16:28:07.817Z,2.27
2022-12-01T16:33:19.647Z,2.28
2022-12-01T16:38:29.826Z,2.29
2022-12-01T16:43:39.520Z,2.26
2022-12-01T16:48:46.690Z,2.24
2022-12-01T16:53:54.041Z,2.25
2022-12-01T16:59:02.623Z,2.26
2022-12-01T17:04:12.781Z,2.28
2022-12-01T17:09:20.271Z,2.27
2022-12-01T17:14:28.116Z,2.27
2022-12-01T17:19:35.918Z,2.28
2022-12-01T17:24:43.154Z,2.28
2022-12-01T17:29:50.153Z,2.27
2022-12-01T17:34:57.497Z,2.24
2022-12-01T17:40:04.740Z,2.24
2022-12-01T17:45:12.998Z,2.24
2022-12-01T17:50:20.022Z,2.23
2022-12-01T17:55:27.373Z,2.24
2022-12-01T18:00:37.674Z,2.24
2022-12-01T18:05:45.123Z,2.23
2022-12-01T18:10:54.657Z,2.23
2022-12-01T18:16:06.632Z,2.24
2022-12-01T18:21:16.237Z,2.23
2022-12-01T18:26:24.576Z,2.22
2022-12-01T18:31:33.148Z,2.21
2022-12-01T18:36:41.861Z,2.20
2022-12-01T18:41:49.656Z,2.19
2022-12-01T18:46:59.055Z,2.16
2022-12-01T18:52:06.164Z,2.15
2022-12-01T18:57:14.690Z,2.15
2022-12-01T19:02:22.286Z,2.17
2022-12-01T19:07:30.230Z,2.17
2022-12-01T19:12:41.272Z,2.18
2022-12-01T19:17:48.675Z,2.16
2022-12-01T19:22:55.601Z,2.13
2022-12-01T19:28:02.701Z,2.12
2022-12-01T19:33:14.015Z,2.10
2022-12-01T19:38:27.509Z,2.09
2022-12-01T19:43:35.944Z,2.07
2022-12-01T19:48:43.271Z,2.04
2022-12-01T19:53:51.071Z,2.04
2022-12-01T19:58:58.773Z,2.04
2022-12-01T20:04:09.569Z,2.03
2022-12-01T20:09:16.555Z,2.00
2022-12-01T20:14:23.599Z,1.96
2022-12-01T20:19:30.613Z,1.97
2022-12-01T20:24:39.764Z,1.95
2022-12-01T20:29:46.897Z,1.94
2022-12-01T20:34:54.036Z,1.91
2022-12-01T20:40:01.246Z,1.90
2022-12-01T20:45:08.960Z,1.91
2022-12-01T20:50:16.084Z,1.90
2022-12-01T20:55:24.603Z,1.87
2022-12-01T21:00:31.579Z,1.87
2022-12-01T21:05:41.799Z,1.86
2022-12-01T21:10:48.889Z,1.81
2022-12-01T21:16:03.600Z,1.79
2022-12-01T21:21:22.571Z,1.77
2022-12-01T21:26:29.448Z,1.76
2022-12-01T21:31:36.457Z,1.77
2022-12-01T21:36:43.334Z,1.77
2022-12-01T21:41:52.173Z,1.77
2022-12-01T21:47:01.564Z,1.74
2022-12-01T21:52:18.852Z,1.70
2022-12-01T21:57:38.539Z,1.70
2022-12-01T22:02:52.729Z,1.70
2022-12-01T22:08:11.294Z,1.69
2022-12-01T22:13:19.113Z,1.69
2022-12-01T22:18:30.744Z,1.64
2022-12-01T22:23:38.038Z,1.63
2022-12-01T22:28:45.355Z,1.64
2022-12-01T22:34:01.555Z,1.64
2022-12-01T22:39:29.773Z,1.64
2022-12-01T22:44:36.744Z,1.62
2022-12-01T22:49:44.525Z,1.59
2022-12-01T22:54:52.726Z,1.59
2022-12-01T23:00:02.576Z,1.56
2022-12-01T23:05:22.800Z,1.55
2022-12-01T23:10:32.698Z,1.54
2022-12-01T23:15:40.959Z,1.53
2022-12-01T23:20:51.950Z,1.49
2022-12-01T23:25:59.507Z,1.47
2022-12-01T23:31:06.599Z,1.44
2022-12-01T23:36:16.795Z,1.41
2022-12-01T23:41:28.883Z,1.41
2022-12-01T23:46:36.132Z,1.41
2022-12-01T23:51:48.711Z,1.37
2022-12-01T23:56:58.428Z,1.34
